Flight Track Log - Related Links

Times and Time Zones

All times are in EDT time to prevent confusion due to time zone crossing. See the UAL3741 flight status page for this flight to view local times or setup timezone preferences in your user account.

Time Position Orientation Groundspeed Altitude Reporting Facility
EDT Latitude Longitude Course Direction KTS MPH feet Rate Location/Type
Sun 12:25:11 PM 38.9333 -77.5500 256° West 211 243 2,300  Level Potomac TRACON
Sun 12:26:06 PM 38.9167 -77.6333 256° West 278 320 3,800 2,243 Climbing Potomac TRACON
Sun 12:27:06 PM 38.8967 -77.7200 254° West 293 337 6,600 2,678 Climbing Washington Center
Sun 12:28:07 PM 38.8803 -77.8208 258° West 287 330 9,200 2,380 Climbing Washington Center
Sun 12:29:07 PM 38.8722 -77.9167 264° West 298 343 11,400 2,186 Climbing Washington Center
Sun 12:30:05 PM 38.8658 -78.0283 266° West 310 357 13,500 2,100 Climbing Washington Center
Sun 12:31:07 PM 38.8572 -78.1375 264° West 310 357 15,600 1,377 Climbing Washington Center
Sun 12:32:07 PM 38.8544 -78.2628 268° West 330 380 16,300 1,300 Climbing Washington Center
Sun 12:33:07 PM 38.8494 -78.3983 267° West 357 411 18,200 1,361 Climbing Washington Center
Sun 12:34:06 PM 38.8275 -78.5308 258° West 376 433 19,000 1,100 Climbing Washington Center
Sun 12:35:07 PM 38.8053 -78.6711 259° West 392 451 20,400 1,488 Climbing Washington Center
Sun 12:36:07 PM 38.7806 -78.8139 258° West 405 466 22,000 1,373 Climbing Washington Center
Sun 12:37:05 PM 38.7581 -78.9567 259° West 411 473 23,100 1,109 Climbing Washington Center
Sun 12:38:06 PM 38.7328 -79.1072 258° West 417 480 24,200 1,180 Climbing Washington Center
Sun 12:39:07 PM 38.7069 -79.2736 259° West 432 497 25,500 1,140 Climbing Washington Center
Sun 12:40:07 PM 38.6833 -79.4267 259° West 446 513 26,500 857 Climbing Washington Center
Sun 12:41:06 PM 38.6556 -79.5794 257° West 446 513 27,200 800 Climbing Washington Center
Sun 12:42:07 PM 38.6294 -79.7322 258° West 446 513 28,100 744 Climbing Washington Center
Sun 12:43:07 PM 38.6056 -79.8744 258° West 451 519 28,700 661 Climbing Washington Center
Sun 12:44:05 PM 38.5747 -80.0347 256° West 451 519 29,400 750 Climbing Washington Center
Sun 12:46:27 PM 38.5069 -80.3919 256° West 458 527 31,200 828 Climbing Indianapolis Center
Sun 12:47:28 PM 38.4717 -80.5747 256° West 454 522 32,200 878 Climbing Indianapolis Center
Sun 12:48:30 PM 38.4428 -80.7314 257° West 452 520 33,000 774 Climbing Indianapolis Center
Sun 12:49:32 PM 38.4136 -80.8842 256° West 445 512 33,800 484 Climbing Indianapolis Center
Sun 12:50:34 PM 38.3847 -81.0397 257° West 448 516 34,000 97 Climbing Indianapolis Center
Sun 12:51:36 PM 38.3489 -81.1978 254° West 461 531 34,000  Level Indianapolis Center
Sun 12:52:38 PM 38.3103 -81.3567 253° West 465 535 34,000  Level Indianapolis Center
Sun 12:53:40 PM 38.2706 -81.5150 252° West 464 534 34,000  Level Indianapolis Center
Sun 12:54:42 PM 38.2317 -81.6731 253° West 465 535 34,000  Level Indianapolis Center
Sun 12:55:44 PM 38.1806 -81.8606 251° West 465 535 34,000  Level Indianapolis Center
Sun 12:56:46 PM 38.1372 -82.0156 250° West 464 534 34,000  Level Indianapolis Center
Sun 12:57:48 PM 38.0950 -82.1647 250° West 466 536 34,000  Level Indianapolis Center
Sun 12:58:50 PM 38.0522 -82.3183 251° West 463 533 34,000  Level Indianapolis Center
Sun 12:59:52 PM 38.0081 -82.4700 250° West 460 529 34,000  Level Indianapolis Center
Sun 01:00:54 PM 37.9569 -82.6483 250° West 461 531 34,000  Level Indianapolis Center
Sun 01:01:56 PM 37.9133 -82.8003 250° West 459 528 34,000  Level Indianapolis Center
Sun 01:02:57 PM 37.8692 -82.9519 250° West 459 528 34,000  Level Indianapolis Center
Sun 01:03:59 PM 37.8233 -83.1028 249° West 460 529 34,000  Level Indianapolis Center
Sun 01:05:01 PM 37.7778 -83.2497 249° West 454 522 34,000  Level Indianapolis Center
Sun 01:06:03 PM 37.7278 -83.4247 250° West 454 522 34,000 145 Level Indianapolis Center
Sun 01:07:05 PM 37.6844 -83.5742 250° West 454 522 34,300 432 Climbing Indianapolis Center
Sun 01:08:08 PM 37.6406 -83.7233 250° West 454 522 34,900 581 Climbing Indianapolis Center
Sun 01:09:09 PM 37.5967 -83.8703 249° West 450 518 35,500 537 Climbing Indianapolis Center
Sun 01:10:11 PM 37.5539 -84.0156 250° West 446 513 36,000 242 Climbing Indianapolis Center
Sun 01:11:13 PM 37.5028 -84.1864 249° West 449 517 36,000  Level Indianapolis Center
Sun 01:12:15 PM 37.4597 -84.3328 250° West 448 516 36,000  Level Indianapolis Center
Sun 01:13:17 PM 37.4125 -84.4794 248° West 450 518 36,000  Level Indianapolis Center
Sun 01:14:19 PM 37.3656 -84.6233 248° West 446 513 36,000  Level Indianapolis Center
Sun 01:15:21 PM 37.3206 -84.7678 249° West 445 512 36,000  Level Indianapolis Center
Sun 01:16:23 PM 37.2753 -84.9100 248° West 441 507 36,000  Level Indianapolis Center
Sun 01:17:25 PM 37.2217 -85.0769 248° West 442 509 36,000  Level Indianapolis Center
Sun 01:18:27 PM 37.1875 -85.2219 254° West 437 503 36,000  Level Indianapolis Center
Sun 01:19:28 PM 37.1578 -85.3708 256° West 440 506 36,000  Level Indianapolis Center
Sun 01:20:30 PM 37.1269 -85.5131 255° West 441 507 36,000  Level Indianapolis Center
Sun 01:21:33 PM 37.0950 -85.6636 255° West 444 511 36,000  Level Indianapolis Center
Sun 01:22:35 PM 37.0594 -85.8369 256° West 438 504 36,000  Level Indianapolis Center
Sun 01:23:37 PM 37.0122 -85.9806 248° West 445 512 36,000  Level Indianapolis Center
Sun 01:24:39 PM 36.9561 -86.1203 243° Southwest 446 513 36,000  Level Indianapolis Center
Sun 01:25:41 PM 36.9008 -86.2586 243° Southwest 443 510 36,000  Level Indianapolis Center
Sun 01:26:41 PM 36.8456 -86.3931 243° Southwest 446 513 36,000  Level Memphis Center
Sun 01:27:41 PM 36.7917 -86.5331 244° Southwest 446 513 36,000  Level Memphis Center
Sun 01:28:41 PM 36.7353 -86.6703 243° Southwest 446 513 36,000  Level Memphis Center
Sun 01:29:41 PM 36.6750 -86.8178 243° Southwest 446 513 36,000  Level Memphis Center
Sun 01:30:41 PM 36.6206 -86.9547 244° Southwest 446 513 36,000  Level Memphis Center
Sun 01:31:41 PM 36.5617 -87.0914 242° Southwest 441 507 36,000  Level Memphis Center
Sun 01:32:41 PM 36.5067 -87.2281 243° Southwest 441 507 36,000  Level Memphis Center
Sun 01:33:41 PM 36.4497 -87.3617 242° Southwest 441 507 36,000  Level Memphis Center
Sun 01:34:41 PM 36.3925 -87.5006 243° Southwest 441 507 36,000  Level Memphis Center
Sun 01:35:41 PM 36.3350 -87.6339 242° Southwest 441 507 36,000  Level Memphis Center
Sun 01:36:41 PM 36.2794 -87.7669 243° Southwest 441 507 36,000  Level Memphis Center
Sun 01:37:41 PM 36.2258 -87.9000 243° Southwest 441 507 36,000  Level Memphis Center
Sun 01:38:41 PM 36.1681 -88.0328 242° Southwest 447 514 36,000  Level Memphis Center
Sun 01:39:41 PM 36.1158 -88.1475 241° Southwest 436 502 36,000  Level Memphis Center
Sun 01:40:41 PM 36.0597 -88.2772 242° Southwest 436 502 36,000  Level Memphis Center
Sun 01:41:41 PM 36.0014 -88.4122 242° Southwest 436 502 36,000  Level Memphis Center
Sun 01:42:41 PM 35.9389 -88.5547 242° Southwest 436 502 36,000  Level Memphis Center
Sun 01:43:41 PM 35.8803 -88.6867 241° Southwest 436 502 36,000  Level Memphis Center
Sun 01:44:41 PM 35.8258 -88.8158 243° Southwest 436 502 36,000  Level Memphis Center
Sun 01:45:41 PM 35.7669 -88.9472 241° Southwest 436 502 36,000  Level Memphis Center
Sun 01:46:41 PM 35.7100 -89.0761 241° Southwest 441 507 36,000  Level Memphis Center
Sun 01:47:41 PM 35.6611 -89.2047 245° Southwest 430 495 36,000  Level Memphis Center
Sun 01:48:41 PM 35.6039 -89.3281 240° Southwest 430 495 36,000  Level Memphis Center
Sun 01:49:41 PM 35.5506 -89.4561 243° Southwest 430 495 36,000  Level Memphis Center
Sun 01:50:41 PM 35.4950 -89.5819 242° Southwest 425 489 36,000  Level Memphis Center
Sun 01:51:41 PM 35.4375 -89.7072 241° Southwest 425 489 36,000  Level Memphis Center
Sun 01:52:41 PM 35.3797 -89.8350 241° Southwest 425 489 36,000  Level Memphis Center
Sun 01:53:41 PM 35.3281 -89.9575 243° Southwest 419 482 36,000  Level Memphis Center
Sun 01:54:41 PM 35.2719 -90.0825 241° Southwest 414 476 36,000  Level Memphis Center
Sun 01:55:41 PM 35.2158 -90.2072 241° Southwest 414 476 36,000  Level Memphis Center
Sun 01:56:41 PM 35.1575 -90.3267 239° Southwest 414 476 36,000  Level Memphis Center
Sun 01:57:41 PM 35.1011 -90.4536 242° Southwest 414 476 36,000  Level Memphis Center
Sun 01:58:41 PM 35.0469 -90.5753 241° Southwest 414 476 36,000  Level Memphis Center
Sun 01:59:41 PM 34.9944 -90.6842 240° Southwest 414 476 36,000  Level Memphis Center
Sun 02:00:41 PM 34.9397 -90.8056 241° Southwest 414 476 36,000  Level Memphis Center
Sun 02:01:41 PM 34.8808 -90.9267 239° Southwest 414 476 36,000  Level Memphis Center
Sun 02:02:41 PM 34.8261 -91.0503 242° Southwest 414 476 36,000  Level Memphis Center
Sun 02:03:41 PM 34.7689 -91.1686 240° Southwest 414 476 36,000  Level Memphis Center
Sun 02:04:41 PM 34.7139 -91.2919 242° Southwest 414 476 36,000  Level Memphis Center
Sun 02:05:41 PM 34.6567 -91.4100 240° Southwest 414 476 36,000  Level Memphis Center
Sun 02:06:41 PM 34.5928 -91.5428 240° Southwest 414 476 36,000  Level Memphis Center
Sun 02:07:41 PM 34.5375 -91.6631 241° Southwest 413 475 36,000  Level Memphis Center
Sun 02:08:41 PM 34.4861 -91.7631 238° Southwest 407 468 36,000  Level Memphis Center
Sun 02:09:41 PM 34.4286 -91.8831 240° Southwest 407 468 36,000  Level Memphis Center
Sun 02:10:41 PM 34.3728 -91.9978 239° Southwest 407 468 36,000  Level Memphis Center
Sun 02:11:41 PM 34.3147 -92.1200 240° Southwest 407 468 36,000  Level Memphis Center
Sun 02:12:41 PM 34.2589 -92.2369 240° Southwest 407 468 36,000  Level Memphis Center
Sun 02:13:41 PM 34.2006 -92.3561 239° Southwest 407 468 36,000  Level Memphis Center
Sun 02:15:38 PM 34.0892 -92.5961 241° Southwest 415 478 36,000  Level Fort Worth Center
Sun 02:16:38 PM 34.0353 -92.7144 241° Southwest 415 478 36,000  Level Fort Worth Center
Sun 02:17:38 PM 33.9769 -92.8303 239° Southwest 410 472 36,000  Level Fort Worth Center
Sun 02:18:38 PM 33.9186 -92.9458 239° Southwest 410 472 36,000  Level Fort Worth Center
Sun 02:19:38 PM 33.8603 -93.0639 239° Southwest 410 472 36,000  Level Fort Worth Center
Sun 02:20:39 PM 33.8014 -93.1792 238° Southwest 410 472 36,000  Level Fort Worth Center
Sun 02:21:38 PM 33.7450 -93.2994 241° Southwest 410 472 36,000  Level Fort Worth Center
Sun 02:22:38 PM 33.6861 -93.4144 238° Southwest 410 472 36,000  Level Fort Worth Center
Sun 02:23:39 PM 33.6292 -93.5294 239° Southwest 410 472 36,000  Level Fort Worth Center
Sun 02:24:38 PM 33.5700 -93.6442 238° Southwest 410 472 36,000  Level Fort Worth Center
Sun 02:25:38 PM 33.5150 -93.7586 240° Southwest 410 472 36,000  Level Fort Worth Center
Sun 02:26:39 PM 33.4675 -93.8528 239° Southwest 410 472 36,000  Level Fort Worth Center
Sun 02:27:38 PM 33.4003 -93.9872 239° Southwest 425 489 36,000  Level Fort Worth Center
Sun 02:28:38 PM 33.3408 -94.1039 239° Southwest 419 482 36,000  Level Fort Worth Center
Sun 02:29:39 PM 33.2811 -94.2156 237° Southwest 419 482 36,000  Level Fort Worth Center
Sun 02:30:38 PM 33.2236 -94.3292 239° Southwest 419 482 36,000  Level Fort Worth Center
Sun 02:31:38 PM 33.1658 -94.4431 239° Southwest 413 475 36,000  Level Fort Worth Center
Sun 02:32:39 PM 33.1058 -94.5592 238° Southwest 413 475 36,000  Level Fort Worth Center
Sun 02:33:38 PM 33.0458 -94.6750 238° Southwest 418 481 36,000  Level Fort Worth Center
Sun 02:34:38 PM 32.9856 -94.7883 238° Southwest 418 481 36,000  Level Fort Worth Center
Sun 02:35:39 PM 32.9275 -94.9039 239° Southwest 413 475 36,000  Level Fort Worth Center
Sun 02:36:38 PM 32.8692 -95.0192 239° Southwest 413 475 36,000  Level Fort Worth Center
Sun 02:37:38 PM 32.8064 -95.1347 237° Southwest 418 481 36,000  Level Fort Worth Center
Sun 02:38:39 PM 32.7458 -95.2522 239° Southwest 418 481 36,000  Level Fort Worth Center
Sun 02:39:38 PM 32.6872 -95.3647 238° Southwest 412 474 36,000  Level Fort Worth Center
Sun 02:40:38 PM 32.6264 -95.4769 237° Southwest 417 480 36,000  Level Fort Worth Center
Sun 02:41:38 PM 32.5656 -95.5917 238° Southwest 417 480 36,000  Level Fort Worth Center
Sun 02:42:38 PM 32.5044 -95.7089 238° Southwest 417 480 36,000  Level Fort Worth Center
Sun 02:43:38 PM 32.4433 -95.8206 237° Southwest 417 480 36,000  Level Fort Worth Center
Sun 02:44:39 PM 32.3822 -95.9397 239° Southwest 417 480 36,000  Level Fort Worth Center
Sun 02:45:38 PM 32.3208 -96.0564 238° Southwest 422 486 36,000  Level Fort Worth Center
Sun 02:46:38 PM 32.2533 -96.1803 237° Southwest 422 486 36,000  Level Fort Worth Center
Sun 02:47:39 PM 32.1939 -96.2939 238° Southwest 417 480 36,000  Level Fort Worth Center
Sun 02:48:38 PM 32.1300 -96.4075 236° Southwest 422 486 36,000 -303 Level Fort Worth Center
Sun 02:49:38 PM 32.0494 -96.5064 226° Southwest 422 486 35,400 -694 Descending Fort Worth Center
Sun 02:50:39 PM 31.9725 -96.5708 215° Southwest 417 480 34,600 -1,100 Descending Fort Worth Center
Sun 02:51:38 PM 31.8625 -96.6650 216° Southwest 411 473 33,200 -1,261 Descending Fort Worth Center
Sun 02:52:38 PM 31.7689 -96.7414 215° Southwest 416 479 32,100 -1,250 Descending Fort Worth Center
Sun 02:53:38 PM 31.6711 -96.8225 215° Southwest 427 491 30,700 -1,500 Descending Fort Worth Center
Sun 02:54:38 PM 31.5733 -96.9036 215° Southwest 427 491 29,100 -1,728 Descending Fort Worth Center
Sun 02:55:43 PM 31.4764 -96.9864 216° Southwest 432 497 27,100 -1,890 Descending Houston Center
Sun 02:56:45 PM 31.3786 -97.0678 215° Southwest 430 495 25,100 -1,984 Descending Houston Center
Sun 02:57:47 PM 31.2839 -97.1472 216° Southwest 418 481 23,000 -1,500 Descending Houston Center
Sun 02:58:49 PM 31.1933 -97.2144 212° Southwest 387 445 22,000 -816 Descending Houston Center
Sun 02:59:52 PM 31.0689 -97.2633 199° South 399 459 21,300 -1,536 Descending Houston Center
Sun 03:00:54 PM 30.9689 -97.3047 200° South 392 451 18,800 -2,274 Descending Houston Center
Sun 03:01:56 PM 30.8656 -97.3425 197° South 399 459 16,600 -2,516 Descending Houston Center
Sun 03:02:58 PM 30.7506 -97.3869 198° South 374 430 13,600 -2,806 Descending Houston Center
Sun 03:04:00 PM 30.6686 -97.4492 213° Southwest 366 421 10,800 -2,274 Descending Houston Center
Sun 03:05:02 PM 30.6208 -97.5319 236° Southwest 312 359 8,900 -1,887 Descending Houston Center
Sun 03:06:04 PM 30.5789 -97.6083 237° Southwest 287 330 6,900 -1,452 Descending Houston Center
Sun 03:07:06 PM 30.5253 -97.6614 220° Southwest 267 307 5,900 -1,248 Descending Houston Center
Sun 03:08:09 PM 30.4594 -97.6933 203° Southwest 255 293 4,300 -1,344 Descending Houston Center
Sun 03:09:11 PM 30.4008 -97.6850 173° South 226 260 3,100 -871 Descending Houston Center
Sun 03:10:13 PM 30.3397 -97.6828 178° South 198 228 2,500 -339 Descending Houston Center
Sun 03:11:15 PM 30.2928 -97.6811 178° South 182 209 2,400 -532 Descending Houston Center
Sun 03:12:17 PM 30.2525 -97.6800 179° South 161 185 1,400 -581 Descending Houston Center
Sun 03:13:19 PM 30.2178 -97.6792 179° South 155 178 1,200 -194 Descending Houston Center

Login

Don't have an account? Register now (free) for customized features, flight alerts, and more!